createdAt,value
2022-11-25T00:02:08.988Z,0.22
2022-11-25T00:04:57.716Z,1.03
2022-11-25T00:07:46.342Z,1.30
2022-11-25T00:10:35.112Z,0.20
2022-11-25T00:13:26.420Z,0.30
2022-11-25T00:16:16.547Z,0.20
2022-11-25T00:19:05.341Z,1.60
2022-11-25T00:21:53.961Z,0.20
2022-11-25T00:24:42.829Z,0.40
2022-11-25T00:27:31.460Z,0.20
2022-11-25T00:30:21.699Z,1.27
2022-11-25T00:33:10.365Z,0.10
2022-11-25T00:36:02.198Z,1.50
2022-11-25T00:38:55.143Z,0.83
2022-11-25T00:42:01.246Z,1.47
2022-11-25T00:44:49.926Z,0.40
2022-11-25T00:47:40.010Z,0.20
2022-11-25T00:50:28.682Z,0.60
2022-11-25T00:53:17.301Z,0.20
2022-11-25T00:56:15.501Z,1.27
2022-11-25T00:59:04.192Z,0.30
2022-11-25T01:01:53.043Z,0.53
2022-11-25T01:04:43.388Z,0.10
2022-11-25T01:07:32.118Z,1.03
2022-11-25T01:10:20.759Z,0.37
2022-11-25T01:13:09.401Z,0.40
2022-11-25T01:15:58.099Z,1.03
2022-11-25T01:18:47.631Z,0.37
2022-11-25T01:21:37.691Z,0.40
2022-11-25T01:24:26.654Z,0.50
2022-11-25T01:27:15.309Z,0.23
2022-11-25T01:30:04.030Z,0.20
2022-11-25T01:32:52.680Z,0.20
2022-11-25T01:35:41.339Z,0.20
2022-11-25T01:38:31.995Z,0.20
2022-11-25T01:41:22.317Z,0.20
2022-11-25T01:44:14.268Z,0.30
2022-11-25T01:47:07.731Z,0.50
2022-11-25T01:50:03.808Z,0.20
2022-11-25T01:52:55.039Z,0.83
2022-11-25T01:55:49.819Z,1.33
2022-11-25T01:58:40.273Z,0.10
2022-11-25T02:01:28.994Z,0.53
2022-11-25T02:04:20.157Z,0.20
2022-11-25T02:07:14.446Z,0.98
2022-11-25T02:10:06.114Z,0.77
2022-11-25T02:12:56.738Z,0.88
2022-11-25T02:15:45.431Z,0.50
2022-11-25T02:18:34.163Z,0.50
2022-11-25T02:21:35.051Z,0.33
2022-11-25T02:24:31.350Z,0.20
2022-11-25T02:27:22.302Z,0.73
2022-11-25T02:30:11.647Z,0.10
2022-11-25T02:33:01.661Z,0.30
2022-11-25T02:35:53.827Z,1.23
2022-11-25T02:38:45.271Z,0.10
2022-11-25T02:41:36.009Z,0.83
2022-11-25T02:44:26.354Z,1.90
2022-11-25T02:47:15.118Z,1.13
2022-11-25T02:50:03.778Z,0.23
2022-11-25T02:52:52.419Z,0.37
2022-11-25T02:55:41.143Z,0.57
2022-11-25T02:58:30.211Z,0.40
2022-11-25T03:01:21.168Z,0.20
2022-11-25T03:04:10.422Z,0.40
2022-11-25T03:06:59.080Z,0.83
2022-11-25T03:09:47.997Z,0.20
2022-11-25T03:12:36.728Z,0.20
2022-11-25T03:15:25.572Z,0.10
2022-11-25T03:18:15.658Z,0.20
2022-11-25T03:21:04.526Z,0.63
2022-11-25T03:23:53.289Z,0.37
2022-11-25T03:26:41.943Z,1.33
2022-11-25T03:29:30.701Z,0.23
2022-11-25T03:32:19.460Z,0.40
2022-11-25T03:35:10.807Z,0.20
2022-11-25T03:37:59.491Z,1.17
2022-11-25T03:43:52.038Z,0.30
2022-11-25T03:46:40.682Z,0.30
2022-11-25T03:49:29.363Z,0.33
2022-11-25T03:52:19.775Z,0.40
2022-11-25T03:55:09.505Z,0.30
2022-11-25T03:57:58.174Z,0.40
2022-11-25T04:00:46.828Z,0.20
2022-11-25T04:03:35.499Z,0.50
2022-11-25T04:06:24.356Z,1.17
2022-11-25T04:09:14.883Z,0.57
2022-11-25T04:12:20.993Z,0.40
2022-11-25T04:15:10.509Z,0.30
2022-11-25T04:17:59.191Z,0.47
2022-11-25T04:20:48.035Z,0.60
2022-11-25T04:23:36.717Z,1.30
2022-11-25T04:26:26.824Z,0.10
2022-11-25T04:29:15.485Z,0.17
2022-11-25T04:32:04.180Z,0.63
2022-11-25T04:34:53.555Z,0.80
2022-11-25T04:37:42.271Z,0.93
2022-11-25T04:40:30.946Z,0.10
2022-11-25T04:43:21.203Z,0.67
2022-11-25T04:46:14.662Z,1.43
2022-11-25T04:49:03.676Z,0.27
2022-11-25T04:51:52.283Z,0.50
2022-11-25T04:54:40.928Z,0.20
2022-11-25T04:57:29.587Z,0.20
2022-11-25T05:00:21.304Z,0.20
2022-11-25T05:03:10.713Z,0.20
2022-11-25T05:05:59.409Z,0.20
2022-11-25T05:08:50.486Z,0.10
2022-11-25T05:11:39.112Z,0.10
2022-11-25T05:14:27.822Z,0.20
2022-11-25T05:17:20.730Z,0.40
2022-11-25T05:20:11.622Z,0.20
2022-11-25T05:23:00.303Z,0.10
2022-11-25T05:25:48.890Z,0.10
2022-11-25T05:28:37.598Z,0.10
2022-11-25T05:31:26.212Z,0.83
2022-11-25T05:34:16.332Z,0.20
2022-11-25T05:37:05.304Z,0.20
2022-11-25T05:39:53.924Z,0.10
2022-11-25T05:42:42.884Z,0.67
2022-11-25T05:45:31.971Z,0.20
2022-11-25T05:48:20.870Z,0.47
2022-11-25T05:51:11.096Z,0.20
2022-11-25T05:54:00.200Z,0.20
2022-11-25T05:56:48.817Z,0.40
2022-11-25T05:59:37.503Z,0.10
2022-11-25T06:02:26.582Z,0.20
2022-11-25T06:05:15.293Z,0.63
2022-11-25T06:08:05.743Z,0.10
2022-11-25T06:10:54.714Z,0.20
2022-11-25T06:13:44.110Z,0.10
2022-11-25T06:16:34.268Z,0.10
2022-11-25T06:19:22.969Z,0.60
2022-11-25T06:22:12.129Z,0.57
2022-11-25T06:25:04.111Z,0.20
2022-11-25T06:31:07.802Z,0.10
2022-11-25T06:33:56.700Z,0.43
2022-11-25T06:36:45.388Z,0.20
2022-11-25T06:39:34.082Z,0.40
2022-11-25T06:42:24.116Z,0.20
2022-11-25T06:45:12.986Z,0.20
2022-11-25T06:48:01.644Z,0.20
2022-11-25T06:50:57.901Z,0.40
2022-11-25T06:53:46.595Z,0.30
2022-11-25T06:56:35.399Z,0.40
2022-11-25T06:59:25.459Z,0.27
2022-11-25T07:02:14.395Z,0.20
2022-11-25T07:05:03.063Z,0.20
2022-11-25T07:07:51.716Z,1.27
2022-11-25T07:10:40.485Z,0.70
2022-11-25T07:13:29.171Z,0.32
2022-11-25T07:16:19.319Z,0.87
2022-11-25T07:19:08.336Z,0.10
2022-11-25T07:21:56.985Z,0.20
2022-11-25T07:24:45.855Z,0.47
2022-11-25T07:27:34.646Z,0.90
2022-11-25T07:33:33.408Z,0.10
2022-11-25T07:36:22.397Z,0.10
2022-11-25T07:39:14.528Z,0.30
2022-11-25T07:42:03.524Z,0.20
2022-11-25T07:44:52.254Z,0.33
2022-11-25T07:47:40.890Z,0.10
2022-11-25T07:50:31.200Z,0.20
2022-11-25T07:53:19.842Z,0.63
2022-11-25T07:56:09.330Z,0.10
2022-11-25T07:58:58.923Z,0.20
2022-11-25T08:01:47.937Z,0.10
2022-11-25T08:04:37.432Z,1.13
2022-11-25T08:07:31.893Z,0.20
2022-11-25T08:10:23.580Z,0.30
2022-11-25T08:13:12.207Z,0.63
2022-11-25T08:16:01.445Z,0.40
2022-11-25T08:18:50.868Z,0.10
2022-11-25T08:21:39.675Z,0.20
2022-11-25T08:24:29.723Z,0.43
2022-11-25T08:27:18.356Z,0.20
2022-11-25T08:30:08.838Z,0.33
2022-11-25T08:32:58.199Z,0.33
2022-11-25T08:35:54.409Z,1.07
2022-11-25T08:38:43.595Z,0.50
2022-11-25T08:41:35.953Z,0.30
2022-11-25T08:44:28.295Z,0.47
2022-11-25T08:47:16.899Z,0.73
2022-11-25T08:50:08.288Z,0.30
2022-11-25T08:52:57.668Z,0.40
2022-11-25T08:55:49.501Z,0.68
2022-11-25T08:58:39.670Z,0.50
2022-11-25T09:01:29.015Z,0.43
2022-11-25T09:04:17.709Z,0.63
2022-11-25T09:07:06.522Z,0.30
2022-11-25T09:09:55.500Z,0.73
2022-11-25T09:12:44.595Z,0.10
2022-11-25T09:15:37.854Z,0.93
2022-11-25T09:18:26.585Z,0.30
2022-11-25T09:21:17.738Z,0.80
2022-11-25T09:24:06.587Z,0.40
2022-11-25T09:26:55.355Z,0.30
2022-11-25T09:29:43.999Z,0.30
2022-11-25T09:32:34.172Z,0.13
2022-11-25T09:35:24.174Z,0.27
2022-11-25T09:38:13.600Z,0.30
2022-11-25T09:41:05.881Z,0.20
2022-11-25T09:44:20.137Z,0.47
2022-11-25T09:47:15.769Z,0.10
2022-11-25T09:50:16.014Z,0.10
2022-11-25T09:53:14.094Z,0.77
2022-11-25T09:56:05.982Z,0.20
2022-11-25T09:59:00.815Z,2.50
2022-11-25T10:01:53.779Z,1.23
2022-11-25T10:04:48.584Z,0.70
2022-11-25T10:07:44.363Z,0.47
2022-11-25T10:10:42.479Z,0.20
2022-11-25T10:13:36.372Z,0.20
2022-11-25T10:16:34.686Z,0.40
2022-11-25T10:19:33.170Z,0.30
2022-11-25T10:22:27.385Z,0.10
2022-11-25T10:25:20.232Z,0.40
2022-11-25T10:28:19.576Z,2.43
2022-11-25T10:31:16.518Z,0.90
2022-11-25T10:34:16.190Z,0.50
2022-11-25T10:37:08.705Z,0.30
2022-11-25T10:39:58.071Z,0.30
2022-11-25T10:42:48.507Z,0.23
2022-11-25T10:45:46.330Z,0.10
2022-11-25T10:48:50.832Z,0.67
2022-11-25T10:51:45.174Z,0.30
2022-11-25T10:54:33.778Z,0.40
2022-11-25T10:57:27.859Z,0.70
2022-11-25T11:00:33.650Z,0.63
2022-11-25T11:03:26.469Z,0.20
2022-11-25T11:06:36.785Z,0.20
2022-11-25T11:09:43.192Z,0.47
2022-11-25T11:12:31.888Z,1.37
2022-11-25T11:15:23.662Z,0.20
2022-11-25T11:18:26.612Z,0.97
2022-11-25T11:21:24.815Z,0.43
2022-11-25T11:24:27.367Z,0.20
2022-11-25T11:27:22.432Z,0.20
2022-11-25T11:30:15.942Z,0.60
2022-11-25T11:33:07.602Z,0.27
2022-11-25T11:36:03.396Z,0.33
2022-11-25T11:38:56.345Z,0.10
2022-11-25T11:41:49.646Z,0.20
2022-11-25T11:44:47.928Z,0.53
2022-11-25T11:47:57.916Z,0.47
2022-11-25T11:50:49.902Z,0.55
2022-11-25T11:53:50.250Z,0.20
2022-11-25T11:56:41.998Z,0.20
2022-11-25T11:59:50.021Z,0.47
2022-11-25T12:02:53.248Z,0.30
2022-11-25T12:05:42.579Z,0.20
2022-11-25T12:08:35.890Z,0.60
2022-11-25T12:11:31.261Z,0.37
2022-11-25T12:14:33.085Z,1.20
2022-11-25T12:17:28.203Z,1.10
2022-11-25T12:20:21.472Z,0.30
2022-11-25T12:23:17.023Z,0.10
2022-11-25T12:26:12.617Z,0.10
2022-11-25T12:29:10.792Z,0.60
2022-11-25T12:32:10.527Z,0.40
2022-11-25T12:35:04.237Z,0.10
2022-11-25T12:38:03.721Z,0.10
2022-11-25T12:41:01.452Z,0.20
2022-11-25T12:43:56.444Z,0.20
2022-11-25T12:46:48.498Z,0.20
2022-11-25T12:49:43.227Z,0.20
2022-11-25T12:52:52.468Z,0.20
2022-11-25T12:55:42.010Z,0.20
2022-11-25T12:58:57.263Z,0.37
2022-11-25T13:02:07.381Z,0.40
2022-11-25T13:05:40.212Z,0.60
2022-11-25T13:08:52.757Z,0.40
2022-11-25T13:12:04.103Z,0.43
2022-11-25T13:15:26.445Z,0.77
2022-11-25T13:18:19.863Z,1.70
2022-11-25T13:21:10.508Z,0.30
2022-11-25T13:23:59.934Z,0.90
2022-11-25T13:26:50.856Z,0.20
2022-11-25T13:29:54.879Z,0.23
2022-11-25T13:32:43.545Z,0.10
2022-11-25T13:35:37.754Z,0.17
2022-11-25T13:39:01.066Z,0.57
2022-11-25T13:41:59.167Z,0.30
2022-11-25T13:44:53.417Z,0.60
2022-11-25T13:47:45.194Z,0.20
2022-11-25T13:50:55.325Z,0.43
2022-11-25T13:53:52.920Z,0.40
2022-11-25T13:56:41.714Z,0.20
2022-11-25T13:59:51.170Z,0.40
2022-11-25T14:02:49.953Z,0.20
2022-11-25T14:06:01.070Z,0.50
2022-11-25T14:09:02.232Z,0.70
2022-11-25T14:12:22.107Z,0.10
2022-11-25T14:15:31.200Z,0.30
2022-11-25T14:22:18.462Z,0.98
2022-11-25T14:25:17.502Z,2.15
2022-11-25T14:28:17.081Z,2.27
2022-11-25T14:31:10.860Z,1.73
2022-11-25T14:34:02.505Z,1.17
2022-11-25T14:36:55.854Z,1.23
2022-11-25T14:39:54.289Z,0.50
2022-11-25T14:42:47.513Z,0.30
2022-11-25T14:45:37.109Z,0.50
2022-11-25T14:48:27.502Z,0.20
2022-11-25T14:51:18.701Z,0.27
2022-11-25T14:54:09.907Z,1.30
2022-11-25T14:57:01.153Z,0.63
2022-11-25T14:59:50.181Z,0.53
2022-11-25T15:02:42.851Z,0.73
2022-11-25T15:05:34.932Z,0.20
2022-11-25T15:08:24.588Z,0.20
2022-11-25T15:11:17.717Z,0.33
2022-11-25T15:14:08.185Z,0.73
2022-11-25T15:16:58.928Z,0.23
2022-11-25T15:19:48.151Z,0.30
2022-11-25T15:22:37.186Z,1.17
2022-11-25T15:25:27.016Z,3.13
2022-11-25T15:28:17.358Z,5.33
2022-11-25T15:31:14.156Z,4.00
2022-11-25T15:34:06.686Z,1.20
2022-11-25T15:36:56.580Z,0.20
2022-11-25T15:39:46.875Z,0.98
2022-11-25T15:42:35.772Z,0.30
2022-11-25T15:45:24.747Z,0.40
2022-11-25T15:48:22.149Z,1.00
2022-11-25T15:51:22.728Z,1.00
2022-11-25T15:54:19.898Z,0.83
2022-11-25T15:57:17.606Z,1.07
2022-11-25T16:00:17.233Z,1.43
2022-11-25T16:03:19.425Z,0.50
2022-11-25T16:06:21.928Z,0.33
2022-11-25T16:09:22.133Z,0.20
2022-11-25T16:12:19.065Z,0.83
2022-11-25T16:15:18.044Z,1.10
2022-11-25T16:18:32.802Z,1.30
2022-11-25T16:21:24.338Z,0.93
2022-11-25T16:24:25.564Z,0.27
2022-11-25T16:27:32.369Z,2.37
2022-11-25T16:30:22.001Z,0.87
2022-11-25T16:33:11.559Z,0.30
2022-11-25T16:36:01.569Z,1.17
2022-11-25T16:38:55.486Z,0.40
2022-11-25T16:41:46.365Z,0.20
2022-11-25T16:44:37.676Z,0.87
2022-11-25T16:47:27.984Z,0.83
2022-11-25T16:50:18.410Z,0.47
2022-11-25T16:53:07.111Z,0.33
2022-11-25T16:55:57.819Z,1.23
2022-11-25T16:58:46.928Z,1.90
2022-11-25T17:01:36.141Z,1.53
2022-11-25T17:04:25.057Z,0.20
2022-11-25T17:07:32.332Z,0.20
2022-11-25T17:10:22.525Z,0.67
2022-11-25T17:13:19.238Z,0.37
2022-11-25T17:16:09.963Z,0.60
2022-11-25T17:19:01.603Z,0.87
2022-11-25T17:21:50.401Z,0.20
2022-11-25T17:24:39.637Z,0.20
2022-11-25T17:27:31.943Z,0.20
2022-11-25T17:30:24.959Z,0.70
2022-11-25T17:33:16.572Z,0.30
2022-11-25T17:36:06.248Z,0.30
2022-11-25T17:38:55.105Z,0.20
2022-11-25T17:41:47.909Z,0.70
2022-11-25T17:44:37.425Z,0.73
2022-11-25T17:47:27.735Z,0.30
2022-11-25T17:50:22.220Z,0.93
2022-11-25T17:53:11.176Z,1.00
2022-11-25T17:55:59.886Z,0.30
2022-11-25T17:58:48.666Z,0.87
2022-11-25T18:01:37.457Z,0.67
2022-11-25T18:04:29.301Z,2.33
2022-11-25T18:07:18.129Z,0.87
2022-11-25T18:10:07.953Z,0.57
2022-11-25T18:12:57.907Z,1.23
2022-11-25T18:15:46.797Z,0.30
2022-11-25T18:18:35.618Z,1.27
2022-11-25T18:21:26.506Z,1.30
2022-11-25T18:24:15.371Z,0.73
2022-11-25T18:27:04.296Z,0.87
2022-11-25T18:29:54.021Z,3.43
2022-11-25T18:32:42.756Z,1.57
2022-11-25T18:35:36.582Z,0.77
2022-11-25T18:38:27.245Z,1.37
2022-11-25T18:41:22.420Z,0.67
2022-11-25T18:44:25.913Z,0.50
2022-11-25T18:47:15.264Z,0.83
2022-11-25T18:50:04.032Z,1.30
2022-11-25T18:52:53.789Z,0.30
2022-11-25T18:55:44.352Z,1.07
2022-11-25T18:58:33.901Z,1.67
2022-11-25T19:01:24.509Z,0.50
2022-11-25T19:04:17.386Z,0.63
2022-11-25T19:07:06.267Z,1.63
2022-11-25T19:09:55.180Z,0.60
2022-11-25T19:12:47.603Z,1.23
2022-11-25T19:15:37.636Z,0.40
2022-11-25T19:18:28.429Z,0.40
2022-11-25T19:21:17.966Z,0.97
2022-11-25T19:24:13.080Z,1.17
2022-11-25T19:27:01.934Z,0.67
2022-11-25T19:29:53.397Z,1.00
2022-11-25T19:32:44.673Z,0.30
2022-11-25T19:35:37.448Z,1.57
2022-11-25T19:38:26.438Z,11.70
2022-11-25T19:41:15.278Z,16.80
2022-11-25T19:44:03.994Z,8.67
2022-11-25T19:50:03.473Z,2.53
2022-11-25T19:52:53.045Z,0.40
2022-11-25T19:55:41.766Z,0.43
2022-11-25T19:58:30.558Z,0.57
2022-11-25T20:01:21.283Z,0.87
2022-11-25T20:04:19.394Z,1.53
2022-11-25T20:07:11.502Z,0.53
2022-11-25T20:10:08.935Z,0.67
2022-11-25T20:12:59.331Z,0.90
2022-11-25T20:15:48.378Z,2.13
2022-11-25T20:18:37.773Z,1.13
2022-11-25T20:21:33.650Z,0.97
2022-11-25T20:24:22.576Z,1.27
2022-11-25T20:27:12.746Z,1.07
2022-11-25T20:30:01.584Z,0.47
2022-11-25T20:32:50.359Z,0.70
2022-11-25T20:35:39.971Z,0.90
2022-11-25T20:38:31.817Z,2.53
2022-11-25T20:41:27.307Z,0.53
2022-11-25T20:44:17.518Z,0.20
2022-11-25T20:47:14.634Z,0.30
2022-11-25T20:50:03.438Z,0.20
2022-11-25T20:52:52.715Z,1.03
2022-11-25T20:55:43.262Z,0.40
2022-11-25T20:58:33.168Z,0.30
2022-11-25T21:01:22.289Z,0.50
2022-11-25T21:04:11.183Z,0.40
2022-11-25T21:07:00.933Z,0.50
2022-11-25T21:09:49.765Z,0.27
2022-11-25T21:12:39.896Z,0.40
2022-11-25T21:15:29.451Z,0.20
2022-11-25T21:18:18.580Z,0.53
2022-11-25T21:21:14.638Z,0.50
2022-11-25T21:24:09.797Z,0.47
2022-11-25T21:27:00.310Z,0.70
2022-11-25T21:29:50.558Z,0.47
2022-11-25T21:32:39.340Z,0.20
2022-11-25T21:35:32.195Z,0.40
2022-11-25T21:38:24.336Z,0.20
2022-11-25T21:41:13.423Z,0.20
2022-11-25T21:44:02.609Z,0.50
2022-11-25T21:46:53.885Z,0.53
2022-11-25T21:49:42.841Z,1.30
2022-11-25T21:52:31.566Z,0.50
2022-11-25T21:55:20.348Z,0.43
2022-11-25T21:58:18.493Z,0.57
2022-11-25T22:01:07.570Z,1.23
2022-11-25T22:03:57.817Z,0.60
2022-11-25T22:06:46.558Z,0.20
2022-11-25T22:09:35.255Z,0.40
2022-11-25T22:12:29.846Z,0.47
2022-11-25T22:15:21.580Z,3.03
2022-11-25T22:18:18.248Z,2.43
2022-11-25T22:21:08.684Z,1.70
2022-11-25T22:23:57.487Z,2.53
2022-11-25T22:26:47.824Z,1.00
2022-11-25T22:29:37.810Z,1.13
2022-11-25T22:32:27.196Z,0.47
2022-11-25T22:35:18.114Z,0.50
2022-11-25T22:38:15.098Z,0.20
2022-11-25T22:41:05.548Z,0.67
2022-11-25T22:43:54.988Z,1.07
2022-11-25T22:46:43.832Z,0.70
2022-11-25T22:49:40.228Z,0.63
2022-11-25T22:52:31.214Z,0.50
2022-11-25T22:55:24.119Z,0.57
2022-11-25T22:58:14.069Z,0.60
2022-11-25T23:01:02.885Z,0.27
2022-11-25T23:03:52.054Z,0.30
2022-11-25T23:06:41.097Z,1.50
2022-11-25T23:09:30.046Z,0.20
2022-11-25T23:12:20.645Z,0.50
2022-11-25T23:15:13.812Z,0.30
2022-11-25T23:18:05.139Z,0.20
2022-11-25T23:20:54.296Z,0.37
2022-11-25T23:23:42.953Z,0.20
2022-11-25T23:26:35.033Z,0.40
2022-11-25T23:29:25.724Z,1.13
2022-11-25T23:32:19.591Z,0.50
2022-11-25T23:35:11.135Z,0.30
2022-11-25T23:38:00.478Z,0.30
2022-11-25T23:40:49.213Z,0.47
2022-11-25T23:43:37.904Z,0.20
2022-11-25T23:46:33.896Z,0.33
2022-11-25T23:49:26.954Z,0.30
2022-11-25T23:52:20.772Z,0.93
2022-11-25T23:55:15.322Z,0.23
2022-11-25T23:58:05.827Z,1.07
